Time;durP1;ratioP1;P1;durP2;ratioP2;P2;SDS_P1;SDS_P2;PMS_P1;PMS_P2;Temp;Humidity;BMP_temperature;BMP_pressure;BME280_temperature;BME280_humidity;BME280_pressure;Samples;Min_cycle;Max_cycle;Signal;HPM_P1;HPM_P2
2022/01/25 00:08:28;;;;;;;;;3.80;3.20;;;;;4.23;86.00;101627.94;5106193;28;8840;-63
2022/01/25 00:27:50;;;;;;;;;7.40;7.00;;;;;4.23;85.87;101634.09;5110822;27;8818;-64
2022/01/25 00:30:29;;;;;;;;;7.00;6.40;;;;;4.24;86.12;101635.81;5128147;27;9549;-63
2022/01/25 00:32:56;;;;;;;;;14.20;11.20;;;;;4.28;85.66;101639.25;5111636;27;8851;-65
2022/01/25 00:35:25;;;;;;;;;4.80;3.60;;;;;4.28;86.62;101640.09;5108619;27;8848;-64
2022/01/25 00:37:52;;;;;;;;;9.00;8.20;;;;;4.30;85.84;101643.56;5120549;27;8852;-63
2022/01/25 00:40:20;;;;;;;;;10.80;9.20;;;;;4.32;86.24;101640.88;5129039;27;8906;-63
2022/01/25 00:42:48;;;;;;;;;10.80;10.00;;;;;4.36;85.82;101642.53;5113925;27;8998;-62
2022/01/25 00:45:16;;;;;;;;;9.20;9.00;;;;;4.35;85.95;101635.53;5107007;27;8954;-63
2022/01/25 00:47:48;;;;;;;;;6.60;5.20;;;;;4.35;85.87;101630.25;5113738;27;8895;-62
2022/01/25 00:50:16;;;;;;;;;7.80;7.20;;;;;4.35;86.04;101625.00;5128212;27;8875;-62
2022/01/25 00:55:29;;;;;;;;;9.00;8.20;;;;;4.34;85.52;101633.81;5108161;28;8962;-64
2022/01/25 00:57:57;;;;;;;;;8.80;7.00;;;;;4.33;86.17;101632.09;5108670;27;9512;-62
2022/01/25 01:00:25;;;;;;;;;9.20;8.80;;;;;4.32;86.08;101625.94;5109246;28;8847;-63
2022/01/25 01:02:53;;;;;;;;;3.80;1.80;;;;;4.34;85.72;101633.81;5107863;28;8832;-64
2022/01/25 01:05:21;;;;;;;;;10.20;9.40;;;;;4.35;86.13;101633.75;5125961;27;8853;-64
2022/01/25 01:08:09;;;;;;;;;12.80;8.40;;;;;4.36;85.65;101637.25;5107282;28;8841;-65
2022/01/25 01:10:36;;;;;;;;;6.80;6.80;;;;;4.39;85.95;101637.16;5109382;28;9292;-63
2022/01/25 01:15:54;;;;;;;;;9.40;9.20;;;;;4.39;85.96;101627.50;5124477;27;8968;-64
2022/01/25 01:29:43;;;;;;;;;6.00;6.00;;;;;4.24;85.47;101617.38;5125814;27;9513;-63
2022/01/25 01:32:32;;;;;;;;;7.80;6.40;;;;;4.21;85.74;101620.09;5119773;28;8828;-64
2022/01/25 01:38:09;;;;;;;;;9.00;6.60;;;;;4.17;86.24;101614.94;5107079;28;8875;-64
2022/01/25 01:40:56;;;;;;;;;0.60;0.60;;;;;4.16;85.72;101608.81;5126684;27;8934;-63
2022/01/25 01:43:30;;;;;;;;;10.20;9.00;;;;;4.16;86.42;101619.34;5110771;27;8843;-63
2022/01/25 01:46:04;;;;;;;;;7.20;5.60;;;;;4.16;86.10;101618.47;5128933;27;9016;-63
2022/01/25 01:48:36;;;;;;;;;6.40;6.40;;;;;4.16;86.07;101619.34;5127912;27;8849;-63
2022/01/25 01:51:07;;;;;;;;;9.40;9.20;;;;;4.19;86.32;101613.13;5117205;27;8861;-61
2022/01/25 01:53:35;;;;;;;;;10.80;7.80;;;;;4.22;85.75;101613.91;5110533;28;8848;-63
2022/01/25 01:56:03;;;;;;;;;9.20;7.40;;;;;4.23;85.71;101614.75;5113474;27;8972;-63
2022/01/25 01:58:31;;;;;;;;;4.80;4.00;;;;;4.23;86.40;101609.50;5113269;27;9628;-63
2022/01/25 02:00:58;;;;;;;;;8.20;8.20;;;;;4.24;86.04;101619.13;5129448;27;8833;-63
2022/01/25 02:03:26;;;;;;;;;7.00;6.40;;;;;4.24;85.87;101603.31;5112214;28;8832;-63
2022/01/25 02:05:54;;;;;;;;;9.40;7.40;;;;;4.24;85.76;101603.31;5110438;28;8843;-61
2022/01/25 02:08:22;;;;;;;;;9.00;9.00;;;;;4.23;86.28;101609.50;5110797;28;8832;-60
2022/01/25 02:10:50;;;;;;;;;3.20;3.20;;;;;4.23;86.07;101604.22;5110583;28;8851;-65
2022/01/25 02:13:18;;;;;;;;;9.60;7.60;;;;;4.23;85.99;101598.94;5111505;28;8949;-61
2022/01/25 02:15:48;;;;;;;;;6.80;6.00;;;;;4.21;85.54;101595.50;5110523;28;8854;-66
2022/01/25 02:23:46;;;;;;;;;7.40;6.60;;;;;4.21;85.96;101575.28;5070035;28;8877;-63
2022/01/25 02:26:14;;;;;;;;;4.60;4.40;;;;;4.20;86.09;101577.97;5069948;28;8854;-63
2022/01/25 02:28:42;;;;;;;;;11.40;9.60;;;;;4.18;86.19;101571.88;5069471;28;8858;-61
2022/01/25 02:31:09;;;;;;;;;11.60;10.40;;;;;4.18;86.21;101566.59;5069394;28;8838;-63
2022/01/25 02:33:37;;;;;;;;;9.00;8.20;;;;;4.17;86.09;101570.13;5069258;28;8866;-63
2022/01/25 02:36:05;;;;;;;;;6.20;5.60;;;;;4.19;86.01;101570.97;5069097;28;8939;-62
2022/01/25 02:38:33;;;;;;;;;9.20;7.00;;;;;4.19;86.31;101569.16;5068777;28;8867;-63
2022/01/25 02:41:01;;;;;;;;;11.60;9.40;;;;;4.20;85.93;101575.31;5067650;28;8997;-64
2022/01/25 02:43:29;;;;;;;;;11.80;10.60;;;;;4.20;85.96;101572.69;5069236;28;8866;-61
2022/01/25 02:46:18;;;;;;;;;11.20;10.40;;;;;4.20;85.90;101578.81;5069834;28;8845;-63
2022/01/25 02:48:45;;;;;;;;;6.40;4.80;;;;;4.20;86.16;101581.44;5069638;28;8849;-63
2022/01/25 02:51:13;;;;;;;;;7.40;6.80;;;;;4.20;85.97;101588.50;5085497;28;8863;-63
2022/01/25 02:53:41;;;;;;;;;9.60;8.20;;;;;4.19;86.08;101585.00;5090344;28;8847;-62
2022/01/25 02:56:09;;;;;;;;;10.80;9.40;;;;;4.20;86.44;101578.81;5089071;28;8860;-63
2022/01/25 02:58:37;;;;;;;;;7.40;3.80;;;;;4.21;85.80;101579.69;5089342;28;9638;-61
2022/01/25 03:01:04;;;;;;;;;9.80;8.40;;;;;4.22;86.30;101584.03;5087903;28;8987;-62
2022/01/25 03:03:33;;;;;;;;;13.80;12.40;;;;;4.22;86.06;101577.00;5089134;28;8860;-64
2022/01/25 03:06:01;;;;;;;;;10.80;10.80;;;;;4.23;86.20;101580.50;5088524;28;8852;-64
2022/01/25 03:08:29;;;;;;;;;10.00;9.00;;;;;4.22;85.86;101577.00;5090876;28;8839;-62
2022/01/25 03:10:57;;;;;;;;;5.60;4.00;;;;;4.23;86.04;101581.38;5089743;28;8894;-63
2022/01/25 03:13:31;;;;;;;;;6.20;5.20;;;;;4.24;86.04;101591.00;5088380;28;8860;-62
2022/01/25 03:16:02;;;;;;;;;7.00;6.20;;;;;4.25;86.27;101584.81;5088281;28;8867;-62
2022/01/25 03:18:41;;;;;;;;;13.40;12.00;;;;;4.26;85.50;101577.78;5089382;28;8898;-63
2022/01/25 03:24:02;;;;;;;;;9.00;7.00;;;;;4.23;86.23;101588.41;5063311;28;8868;-63
2022/01/25 03:26:30;;;;;;;;;4.00;4.00;;;;;4.21;86.17;101584.94;5087828;28;8929;-61
2022/01/25 03:28:58;;;;;;;;;9.00;9.00;;;;;4.18;85.79;101579.78;5087832;28;8852;-63
2022/01/25 03:31:26;;;;;;;;;7.00;6.60;;;;;4.17;85.81;101580.66;5089407;28;8917;-63
2022/01/25 03:33:54;;;;;;;;;8.20;7.00;;;;;4.17;86.02;101572.75;5087867;28;8851;-64
2022/01/25 03:36:22;;;;;;;;;9.00;8.60;;;;;4.16;86.11;101576.28;5088119;28;8852;-63
2022/01/25 03:38:50;;;;;;;;;9.00;6.80;;;;;4.17;85.89;101572.75;5088723;28;8982;-62
2022/01/25 03:41:17;;;;;;;;;12.00;9.40;;;;;4.17;86.08;101570.13;5088331;28;8956;-63
2022/01/25 03:43:52;;;;;;;;;7.40;6.00;;;;;4.17;85.74;101572.75;5088144;28;8848;-63
2022/01/25 03:46:25;;;;;;;;;6.00;6.00;;;;;4.16;86.06;101571.03;5089530;28;8840;-62
2022/01/25 03:51:38;;;;;;;;;7.80;7.80;;;;;4.16;86.10;101565.75;5088042;28;8840;-63
2022/01/25 03:54:05;;;;;;;;;6.60;5.60;;;;;4.15;85.88;101564.03;5089823;28;8848;-63
2022/01/25 03:56:34;;;;;;;;;9.00;8.20;;;;;4.14;85.87;101565.81;5087586;28;8936;-63
2022/01/25 03:59:02;;;;;;;;;7.60;7.60;;;;;4.13;86.33;101571.13;5088061;28;8848;-63
2022/01/25 04:01:30;;;;;;;;;12.60;10.20;;;;;4.12;86.13;101564.13;5088268;28;8956;-62
2022/01/25 04:04:01;;;;;;;;;7.80;7.00;;;;;4.12;85.69;101564.13;5087651;28;8893;-62
2022/01/25 04:06:31;;;;;;;;;4.80;3.80;;;;;4.15;86.23;101558.75;5087624;28;8860;-63
2022/01/25 04:09:00;;;;;;;;;6.00;5.20;;;;;4.15;85.55;101553.50;5086949;28;9010;-63
2022/01/25 04:11:28;;;;;;;;;9.60;9.20;;;;;4.13;86.12;101561.44;5087392;28;8872;-61
2022/01/25 04:13:57;;;;;;;;;9.20;8.60;;;;;4.11;85.90;101555.34;5087669;28;8866;-64
2022/01/25 04:16:29;;;;;;;;;7.80;6.40;;;;;4.09;86.08;101548.38;5088184;28;8862;-62
2022/01/25 04:19:06;;;;;;;;;6.60;6.00;;;;;4.04;86.00;101540.59;5091045;27;8865;-68
2022/01/25 04:27:10;;;;;;;;;6.20;6.20;;;;;4.03;85.93;101561.75;5127865;27;8858;-63
2022/01/25 04:29:37;;;;;;;;;4.60;4.60;;;;;4.00;86.37;101554.78;5128142;27;8838;-64
2022/01/25 04:32:06;;;;;;;;;6.80;6.40;;;;;3.99;86.42;101554.81;5129050;27;8957;-62
2022/01/25 04:34:42;;;;;;;;;10.00;9.40;;;;;4.01;86.67;101553.00;5128058;27;8846;-62
2022/01/25 04:51:16;;;;;;;;;6.60;6.60;;;;;3.98;85.88;101553.09;5126390;27;8964;-63
2022/01/25 04:53:52;;;;;;;;;4.80;4.20;;;;;3.96;85.86;101552.28;5127089;27;8886;-60
2022/01/25 04:56:31;;;;;;;;;6.80;6.00;;;;;3.96;86.44;101558.41;5127157;27;8859;-61
2022/01/25 04:59:06;;;;;;;;;10.00;9.40;;;;;4.00;86.06;101556.53;5128715;27;8879;-61
2022/01/25 05:01:35;;;;;;;;;8.20;7.00;;;;;3.99;86.51;101544.28;5127216;27;8850;-63
2022/01/25 05:04:07;;;;;;;;;9.00;8.20;;;;;3.97;85.91;101549.56;5127442;27;8841;-61
2022/01/25 05:06:35;;;;;;;;;9.00;7.80;;;;;3.98;85.59;101545.19;5124053;27;8960;-62
2022/01/25 05:09:09;;;;;;;;;10.40;8.60;;;;;3.96;86.11;101552.28;5113746;27;8829;-63
2022/01/25 05:11:40;;;;;;;;;7.00;7.00;;;;;3.94;86.18;101546.16;5126023;27;9510;-62
2022/01/25 05:14:19;;;;;;;;;5.80;5.20;;;;;3.92;86.16;101540.06;5126502;27;8922;-63
2022/01/25 05:16:53;;;;;;;;;5.20;4.00;;;;;3.90;85.95;101542.75;5127013;27;9738;-62
2022/01/25 05:22:03;;;;;;;;;7.00;6.80;;;;;3.90;85.98;101542.75;5125674;27;9512;-63
2022/01/25 05:22:24;;;;;;;;;8.60;7.00;;;;;3.92;86.17;101546.22;5126730;27;8926;-64
2022/01/25 05:24:52;;;;;;;;;8.20;8.20;;;;;3.91;86.33;101548.88;5129063;27;8846;-64
2022/01/25 05:27:20;;;;;;;;;7.00;6.00;;;;;3.89;86.36;101545.44;5131561;27;8853;-64
2022/01/25 05:29:48;;;;;;;;;7.00;7.00;;;;;3.88;86.28;101551.63;5130658;27;8876;-61
2022/01/25 05:32:17;;;;;;;;;7.00;7.00;;;;;3.84;86.33;101555.22;5130613;27;8845;-62
2022/01/25 05:34:47;;;;;;;;;8.20;6.60;;;;;3.84;86.38;101553.47;5130184;27;8860;-64
2022/01/25 05:37:15;;;;;;;;;5.20;5.20;;;;;3.84;86.34;101542.94;5125511;27;8842;-61
2022/01/25 05:39:46;;;;;;;;;9.20;9.00;;;;;3.86;85.90;101545.50;5110374;28;8872;-63
2022/01/25 05:44:59;;;;;;;;;7.40;7.00;;;;;3.89;85.82;101550.72;5108652;28;8890;-63
2022/01/25 05:47:29;;;;;;;;;11.80;10.00;;;;;3.91;86.40;101555.03;5111613;28;8832;-61
2022/01/25 05:49:57;;;;;;;;;7.00;5.60;;;;;3.89;86.23;101553.34;5110883;28;8839;-63
2022/01/25 05:52:25;;;;;;;;;9.00;7.80;;;;;3.88;85.90;101546.34;5111453;28;8905;-62
2022/01/25 05:54:53;;;;;;;;;7.80;6.80;;;;;3.88;86.60;101538.44;5109054;28;8848;-62
2022/01/25 05:57:21;;;;;;;;;9.60;8.60;;;;;3.89;86.38;101550.72;5117579;27;8877;-60
2022/01/25 05:59:49;;;;;;;;;3.00;1.80;;;;;3.87;85.99;101541.97;5130270;27;8864;-63
2022/01/25 06:02:20;;;;;;;;;9.40;8.00;;;;;3.87;85.63;101544.59;5129019;27;8829;-62
2022/01/25 06:04:48;;;;;;;;;6.60;5.60;;;;;3.86;86.05;101543.75;5125500;27;8984;-62
2022/01/25 06:07:16;;;;;;;;;6.20;5.40;;;;;3.85;86.30;101534.13;5121594;27;8910;-63
2022/01/25 06:09:44;;;;;;;;;6.80;6.40;;;;;3.85;86.25;101538.50;5122097;27;9079;-62
2022/01/25 06:12:11;;;;;;;;;10.80;9.00;;;;;3.82;86.10;101538.59;5122122;27;8865;-63
2022/01/25 06:14:40;;;;;;;;;10.00;6.80;;;;;3.82;85.96;101543.88;5122970;27;9265;-63
2022/01/25 06:17:07;;;;;;;;;4.00;3.60;;;;;3.82;85.99;101544.72;5121412;27;8937;-63
2022/01/25 06:19:35;;;;;;;;;7.00;7.00;;;;;3.82;86.13;101541.25;5124748;27;8861;-61
2022/01/25 06:22:03;;;;;;;;;6.80;6.80;;;;;3.80;86.19;101543.06;5123459;27;8846;-63
2022/01/25 06:24:32;;;;;;;;;3.00;1.00;;;;;3.78;86.09;101536.94;5121648;27;8857;-63
2022/01/25 06:26:59;;;;;;;;;9.00;8.80;;;;;3.82;86.05;101543.88;5121206;27;8833;-62
2022/01/25 06:29:27;;;;;;;;;6.80;6.20;;;;;3.81;86.30;101543.00;5119982;27;8930;-61
2022/01/25 06:31:56;;;;;;;;;10.00;7.60;;;;;3.83;86.29;101549.13;5121097;27;9317;-62
2022/01/25 06:34:23;;;;;;;;;9.00;9.00;;;;;3.82;85.84;101546.50;5119086;27;9115;-62
2022/01/25 06:36:51;;;;;;;;;9.00;9.00;;;;;3.81;86.14;101547.41;5116798;27;8882;-61
2022/01/25 06:39:19;;;;;;;;;1.40;1.40;;;;;3.79;86.15;101543.94;5118658;27;8931;-62
2022/01/25 06:41:47;;;;;;;;;10.00;9.00;;;;;3.77;86.27;101540.50;5120413;27;9284;-63
2022/01/25 06:44:15;;;;;;;;;9.00;8.60;;;;;3.74;86.25;101540.59;5116689;27;8926;-63
2022/01/25 06:46:45;;;;;;;;;8.60;8.20;;;;;3.73;86.21;101541.50;5116647;27;9227;-61
2022/01/25 06:49:14;;;;;;;;;6.20;5.00;;;;;3.72;86.10;101547.63;5118671;27;8879;-63
2022/01/25 06:51:42;;;;;;;;;8.80;8.20;;;;;3.72;85.93;101560.81;5115825;27;9139;-61
2022/01/25 06:54:09;;;;;;;;;10.60;8.80;;;;;3.73;85.66;101555.50;5113989;27;8999;-61
2022/01/25 06:56:37;;;;;;;;;5.80;5.80;;;;;3.76;85.91;101565.09;5110591;27;8849;-62
2022/01/25 06:59:05;;;;;;;;;7.40;6.20;;;;;3.78;86.25;101561.53;5115012;27;8857;-61
2022/01/25 07:01:33;;;;;;;;;9.20;6.80;;;;;3.78;86.15;101564.16;5116689;27;8950;-61
2022/01/25 07:04:01;;;;;;;;;8.80;8.80;;;;;3.78;85.29;101560.66;5114538;27;9645;-61
2022/01/25 07:06:29;;;;;;;;;6.00;3.60;;;;;3.75;86.03;101572.13;5115661;27;9156;-64
2022/01/25 07:08:58;;;;;;;;;7.00;6.20;;;;;3.75;86.22;101574.75;5117623;27;8849;-61
2022/01/25 07:11:25;;;;;;;;;5.60;4.00;;;;;3.74;85.88;101570.41;5120774;27;9256;-67
2022/01/25 07:13:53;;;;;;;;;10.40;9.60;;;;;3.74;85.69;101573.03;5118943;27;8884;-61
2022/01/25 07:16:21;;;;;;;;;7.40;6.60;;;;;3.73;86.26;101566.03;5117789;27;8865;-62
2022/01/25 07:18:49;;;;;;;;;11.25;8.50;;;;;3.71;85.93;101576.66;5071078;27;1284406;-66
2022/01/25 07:21:17;;;;;;;;;1.40;1.40;;;;;3.66;85.99;101574.16;5118775;27;8841;-62
2022/01/25 07:23:45;;;;;;;;;8.80;7.60;;;;;3.64;85.76;101578.56;5118136;27;8880;-61
2022/01/25 07:26:13;;;;;;;;;9.20;7.80;;;;;3.63;85.89;101579.47;5120343;27;8846;-62
2022/01/25 07:28:41;;;;;;;;;7.40;7.00;;;;;3.65;86.11;101580.34;5118143;27;8857;-63
2022/01/25 07:31:09;;;;;;;;;15.20;10.00;;;;;3.67;85.95;101575.88;5119265;27;8876;-62
2022/01/25 07:33:39;;;;;;;;;10.40;8.20;;;;;3.67;86.12;101573.25;5118217;27;8877;-63
2022/01/25 07:36:13;;;;;;;;;8.60;8.60;;;;;3.67;85.70;101570.63;5117098;27;9111;-63
2022/01/25 07:38:44;;;;;;;;;9.60;7.00;;;;;3.66;86.26;101568.00;5117468;27;8837;-63
2022/01/25 07:41:17;;;;;;;;;14.60;12.40;;;;;3.63;86.05;101563.69;5118372;27;8948;-63
2022/01/25 07:43:45;;;;;;;;;9.40;7.20;;;;;3.62;85.99;101564.59;5116791;27;8846;-64
2022/01/25 07:46:16;;;;;;;;;4.80;4.20;;;;;3.60;85.81;101565.53;5117732;27;8857;-62
2022/01/25 07:48:58;;;;;;;;;6.20;4.80;;;;;3.60;85.74;101566.41;5099626;27;8954;-61
2022/01/25 07:51:26;;;;;;;;;12.00;11.60;;;;;3.61;86.52;101557.59;5119779;27;8833;-64
2022/01/25 07:53:54;;;;;;;;;7.80;6.40;;;;;3.62;85.76;101567.22;5116767;27;9194;-61
2022/01/25 07:56:21;;;;;;;;;6.00;5.20;;;;;3.63;85.97;101563.69;5119082;27;9613;-61
2022/01/25 07:58:49;;;;;;;;;7.40;7.20;;;;;3.64;85.81;101560.13;5119046;27;8830;-63
2022/01/25 08:01:17;;;;;;;;;8.40;7.80;;;;;3.67;86.18;101554.81;5118435;27;8870;-63
2022/01/25 08:03:45;;;;;;;;;7.40;3.80;;;;;3.68;85.60;101567.06;5117520;27;9041;-64
2022/01/25 08:06:14;;;;;;;;;4.40;4.00;;;;;3.70;86.18;101562.63;5117040;27;9246;-62
2022/01/25 08:08:46;;;;;;;;;8.20;6.80;;;;;3.72;85.93;101566.06;5117892;27;8853;-63
2022/01/25 08:11:16;;;;;;;;;6.00;4.40;;;;;3.70;85.81;101565.25;5121780;27;9173;-62
2022/01/25 08:13:52;;;;;;;;;8.20;7.00;;;;;3.70;85.80;101572.31;5117702;27;8846;-61
2022/01/25 08:16:21;;;;;;;;;8.20;7.00;;;;;3.69;86.05;101567.94;5117423;27;8907;-63
2022/01/25 08:18:50;;;;;;;;;7.60;7.60;;;;;3.69;86.10;101566.16;5117332;27;9498;-64
2022/01/25 08:21:25;;;;;;;;;9.80;8.20;;;;;3.69;86.02;101568.81;5117431;27;8911;-63
2022/01/25 08:24:03;;;;;;;;;9.80;9.60;;;;;3.72;85.95;101571.34;5112937;27;8880;-63
2022/01/25 08:26:31;;;;;;;;;8.40;7.40;;;;;3.71;85.52;101566.97;5112966;27;8846;-62
2022/01/25 08:28:59;;;;;;;;;8.60;7.80;;;;;3.72;85.79;101571.34;5114689;27;8854;-63
2022/01/25 08:31:31;;;;;;;;;7.60;5.20;;;;;3.69;85.51;101568.81;5109020;27;9530;-63
2022/01/25 08:34:08;;;;;;;;;1.80;1.80;;;;;3.69;85.61;101562.69;5110966;27;8883;-64
2022/01/25 08:36:36;;;;;;;;;6.80;6.00;;;;;3.71;85.51;101568.78;5114939;27;8942;-62
2022/01/25 08:39:07;;;;;;;;;7.00;6.20;;;;;3.72;85.66;101568.72;5112847;27;8857;-61
2022/01/25 08:41:39;;;;;;;;;6.40;4.80;;;;;3.74;85.76;101574.81;5114706;27;8877;-62
2022/01/25 08:44:07;;;;;;;;;12.60;9.60;;;;;3.74;85.21;101569.56;5111622;27;8881;-63
2022/01/25 08:46:35;;;;;;;;;6.40;5.20;;;;;3.73;85.70;101570.47;5116008;27;8971;-63
2022/01/25 08:49:07;;;;;;;;;9.00;7.80;;;;;3.74;86.15;101564.28;5112929;27;8967;-64
2022/01/25 08:51:35;;;;;;;;;4.80;4.80;;;;;3.75;85.99;101571.28;5114292;27;8922;-64
2022/01/25 08:54:05;;;;;;;;;8.20;7.40;;;;;3.76;85.43;101573.00;5109455;27;8850;-63
2022/01/25 08:56:35;;;;;;;;;6.80;5.60;;;;;3.76;85.33;101583.53;5113777;27;8854;-60
2022/01/25 08:59:05;;;;;;;;;8.20;8.20;;;;;3.79;85.58;101580.81;5113123;27;9419;-64
2022/01/25 09:01:33;;;;;;;;;8.60;7.00;;;;;3.81;85.51;101586.94;5112950;27;9538;-63
2022/01/25 09:04:02;;;;;;;;;10.80;10.80;;;;;3.81;85.81;101585.16;5112464;27;8899;-63
2022/01/25 09:06:29;;;;;;;;;3.20;1.40;;;;;3.81;85.67;101585.16;5112326;27;9110;-61
2022/01/25 09:08:57;;;;;;;;;12.60;11.20;;;;;3.80;85.25;101591.31;5111844;27;8861;-63
2022/01/25 09:11:25;;;;;;;;;14.60;10.40;;;;;3.78;85.37;101587.88;5111441;27;9530;-63
2022/01/25 09:13:53;;;;;;;;;9.60;7.80;;;;;3.81;85.77;101592.19;5113263;27;8862;-62
2022/01/25 09:16:21;;;;;;;;;9.80;6.80;;;;;3.82;85.48;101594.78;5114095;27;8996;-63
2022/01/25 09:18:49;;;;;;;;;7.00;5.60;;;;;3.85;85.50;101594.72;5113394;27;9141;-60
2022/01/25 09:21:17;;;;;;;;;9.20;5.20;;;;;3.88;85.36;101592.00;5112573;27;8933;-62
2022/01/25 09:23:45;;;;;;;;;6.40;5.40;;;;;3.92;85.29;101587.50;5112966;27;8853;-64
2022/01/25 09:26:12;;;;;;;;;7.80;7.20;;;;;3.93;85.90;101592.75;5113270;27;8880;-63
2022/01/25 09:28:40;;;;;;;;;6.60;6.00;;;;;3.95;85.06;101590.94;5111678;27;8988;-64
2022/01/25 09:31:08;;;;;;;;;7.40;5.80;;;;;3.96;85.62;101589.16;5112955;27;9345;-63
2022/01/25 09:33:36;;;;;;;;;8.20;7.20;;;;;3.95;85.27;101587.44;5114579;27;8925;-64
2022/01/25 09:36:04;;;;;;;;;2.80;1.20;;;;;3.91;85.27;101598.94;5112098;27;8952;-64
2022/01/25 09:38:32;;;;;;;;;5.60;4.80;;;;;3.88;85.10;101596.41;5111274;27;8837;-63
2022/01/25 09:41:00;;;;;;;;;5.20;4.00;;;;;3.85;85.61;101591.19;5111816;27;8866;-64
2022/01/25 09:43:28;;;;;;;;;4.40;4.00;;;;;3.84;85.62;101595.63;5109301;27;9515;-63
2022/01/25 09:45:56;;;;;;;;;5.40;5.20;;;;;3.84;85.26;101595.63;5111636;27;8849;-63
2022/01/25 09:48:24;;;;;;;;;11.20;9.20;;;;;3.84;85.60;101603.53;5108062;27;8976;-64
2022/01/25 09:50:52;;;;;;;;;8.00;6.20;;;;;3.85;85.04;101601.75;5111355;27;9373;-63
2022/01/25 09:53:20;;;;;;;;;6.60;5.60;;;;;3.87;85.45;101606.06;5108641;27;8976;-63
2022/01/25 09:55:52;;;;;;;;;4.40;4.40;;;;;3.87;85.13;101610.47;5107907;27;8849;-62
2022/01/25 09:58:20;;;;;;;;;9.00;8.20;;;;;3.86;85.06;101606.09;5111215;27;8834;-62
2022/01/25 10:00:48;;;;;;;;;3.20;3.20;;;;;3.87;85.62;101618.38;5109592;27;8854;-64
2022/01/25 10:03:20;;;;;;;;;6.80;6.40;;;;;3.87;85.40;101611.34;5111130;27;8841;-63
2022/01/25 10:05:48;;;;;;;;;6.00;6.00;;;;;3.87;85.48;101613.09;5111120;27;8846;-64
2022/01/25 10:08:16;;;;;;;;;6.20;6.00;;;;;3.87;85.03;101615.72;5108920;27;8854;-63
2022/01/25 10:10:44;;;;;;;;;6.60;5.20;;;;;3.88;85.28;101617.50;5113219;27;9115;-63
2022/01/25 10:13:12;;;;;;;;;7.80;6.40;;;;;3.87;85.46;101627.16;5112102;27;9518;-64
2022/01/25 10:15:40;;;;;;;;;6.00;3.20;;;;;3.88;85.15;101628.03;5113664;27;9285;-64
2022/01/25 10:18:13;;;;;;;;;6.00;4.80;;;;;3.86;85.11;101635.06;5114636;27;8935;-63
2022/01/25 10:20:41;;;;;;;;;6.00;5.60;;;;;3.87;85.08;101628.91;5114133;27;8853;-63
2022/01/25 10:23:09;;;;;;;;;9.00;6.00;;;;;3.87;85.23;101642.97;5115124;27;8963;-64
2022/01/25 10:25:37;;;;;;;;;7.40;6.80;;;;;3.88;85.07;101633.28;5114345;27;9130;-63
2022/01/25 10:28:11;;;;;;;;;3.80;2.20;;;;;3.87;85.27;101642.06;5118373;27;8992;-63
2022/01/25 10:30:39;;;;;;;;;7.80;6.40;;;;;3.87;85.13;101642.97;5114067;27;9281;-62
2022/01/25 10:33:12;;;;;;;;;3.00;3.00;;;;;3.90;84.97;101632.31;5113577;27;9146;-63
2022/01/25 10:35:40;;;;;;;;;7.00;6.40;;;;;3.91;85.73;101633.19;5112585;27;8937;-65
2022/01/25 10:38:08;;;;;;;;;4.80;3.40;;;;;3.92;85.04;101640.19;5113338;27;8825;-61
2022/01/25 10:40:37;;;;;;;;;7.20;6.00;;;;;3.93;85.20;101639.28;5114127;27;8980;-62
2022/01/25 10:43:06;;;;;;;;;6.80;6.40;;;;;3.93;85.30;101631.38;5113893;27;8846;-63
2022/01/25 10:45:37;;;;;;;;;4.00;3.00;;;;;3.94;85.07;101634.00;5113771;27;8972;-62
2022/01/25 10:48:06;;;;;;;;;5.20;4.00;;;;;3.96;84.99;101633.97;5114721;27;8861;-64
2022/01/25 10:50:35;;;;;;;;;7.00;6.00;;;;;3.94;85.12;101636.63;5112917;27;8973;-61
2022/01/25 10:53:03;;;;;;;;;6.80;5.40;;;;;3.93;85.08;101628.75;5114465;27;8846;-63
2022/01/25 10:55:31;;;;;;;;;5.80;4.00;;;;;3.92;85.08;101629.66;5114035;27;8853;-62
2022/01/25 10:58:00;;;;;;;;;4.80;3.60;;;;;3.93;85.41;101628.75;5113516;27;8853;-64
2022/01/25 11:00:28;;;;;;;;;7.00;6.00;;;;;3.91;84.81;101623.53;5110470;27;9117;-63
2022/01/25 11:02:56;;;;;;;;;7.80;6.80;;;;;3.90;85.28;101615.66;5114199;27;8876;-64
2022/01/25 11:05:25;;;;;;;;;4.20;4.00;;;;;3.93;84.89;101618.22;5113119;27;8979;-62
2022/01/25 11:07:53;;;;;;;;;7.00;6.60;;;;;3.90;85.09;101621.78;5115379;27;8829;-63
2022/01/25 11:10:21;;;;;;;;;4.40;4.00;;;;;3.92;85.09;101617.38;5114063;27;9296;-62
2022/01/25 11:13:02;;;;;;;;;7.40;5.00;;;;;3.94;84.94;101614.66;5115308;27;8864;-61
2022/01/25 11:15:34;;;;;;;;;5.60;4.00;;;;;3.97;84.93;101620.72;5114192;27;9275;-63
2022/01/25 11:18:03;;;;;;;;;7.40;5.00;;;;;4.00;84.74;101612.75;5117412;27;8837;-62
2022/01/25 11:20:31;;;;;;;;;4.00;4.00;;;;;3.99;84.69;101618.06;5116181;27;8992;-63
2022/01/25 11:22:59;;;;;;;;;0.00;0.00;;;;;3.98;85.11;101614.53;5112623;27;9019;-61
2022/01/25 11:25:26;;;;;;;;;4.00;4.00;;;;;3.99;84.71;101610.16;5110511;27;8841;-61
2022/01/25 11:27:56;;;;;;;;;4.40;3.80;;;;;3.95;84.90;101609.38;5115461;27;9511;-60
2022/01/25 11:30:24;;;;;;;;;4.80;4.80;;;;;3.95;85.12;101597.97;5116223;27;9165;-62
2022/01/25 11:32:52;;;;;;;;;6.00;6.00;;;;;3.95;85.01;101603.25;5112562;27;8838;-64
2022/01/25 11:35:20;;;;;;;;;5.60;3.40;;;;;3.97;85.07;101598.78;5113401;27;9102;-63
2022/01/25 11:37:48;;;;;;;;;6.00;6.00;;;;;3.98;84.72;101604.00;5115617;27;8884;-63
2022/01/25 11:40:15;;;;;;;;;4.00;4.00;;;;;4.00;84.45;101602.22;5115645;27;8873;-64
2022/01/25 11:42:43;;;;;;;;;3.80;3.00;;;;;4.02;84.73;101599.53;5113914;27;8853;-61
2022/01/25 11:45:13;;;;;;;;;5.20;3.60;;;;;4.03;84.26;101602.13;5115716;27;8849;-62
2022/01/25 11:47:42;;;;;;;;;6.80;6.00;;;;;4.04;84.66;101608.28;5109678;27;8850;-63
2022/01/25 11:50:09;;;;;;;;;5.40;5.20;;;;;4.03;84.74;101601.28;5108714;27;8837;-63
2022/01/25 11:52:40;;;;;;;;;6.00;4.80;;;;;4.02;84.45;101595.13;5111632;27;9200;-61
2022/01/25 11:55:08;;;;;;;;;4.80;4.00;;;;;3.99;84.73;101600.50;5111873;27;8884;-62
2022/01/25 11:57:36;;;;;;;;;5.20;5.20;;;;;4.00;84.24;101590.81;5110537;27;8865;-62
2022/01/25 12:00:04;;;;;;;;;6.00;4.00;;;;;4.01;84.95;101600.44;5110978;27;8924;-63
2022/01/25 12:02:32;;;;;;;;;3.20;3.00;;;;;4.03;84.10;101601.28;5108870;27;8861;-61
2022/01/25 12:05:00;;;;;;;;;6.00;4.80;;;;;4.05;84.40;101596.81;5112876;27;9143;-64
2022/01/25 12:07:39;;;;;;;;;4.80;4.80;;;;;4.07;84.40;101595.00;5109872;27;8941;-64
2022/01/25 12:10:14;;;;;;;;;5.20;4.00;;;;;4.09;84.51;101595.81;5111815;27;8866;-63
2022/01/25 12:12:41;;;;;;;;;2.60;2.60;;;;;4.07;84.48;101587.09;5113012;27;8850;-63
2022/01/25 12:15:09;;;;;;;;;1.00;1.00;;;;;4.07;84.31;101584.47;5113753;27;8825;-62
2022/01/25 12:17:37;;;;;;;;;1.80;1.40;;;;;4.04;84.47;101587.19;5113898;27;9181;-63
2022/01/25 12:20:06;;;;;;;;;4.40;3.80;;;;;4.01;84.24;101584.63;5116020;27;8877;-64
2022/01/25 12:22:38;;;;;;;;;3.00;1.80;;;;;3.95;84.18;101580.38;5114232;27;9166;-62
2022/01/25 12:25:10;;;;;;;;;5.20;4.40;;;;;3.89;84.28;101574.44;5115819;27;8928;-62
2022/01/25 12:27:39;;;;;;;;;4.80;3.40;;;;;3.87;84.33;101576.22;5111888;27;8853;-63
2022/01/25 12:30:08;;;;;;;;;1.80;0.40;;;;;3.86;84.07;101578.00;5111527;27;9706;-63
2022/01/25 12:32:36;;;;;;;;;4.40;4.00;;;;;3.88;84.69;101572.69;5112444;27;8837;-64
2022/01/25 12:35:06;;;;;;;;;4.80;3.00;;;;;3.89;83.87;101569.16;5114694;27;8869;-63
2022/01/25 12:37:34;;;;;;;;;2.80;2.60;;;;;3.92;84.76;101567.31;5113449;27;8980;-61
2022/01/25 12:40:02;;;;;;;;;6.00;4.80;;;;;3.98;84.31;101566.28;5110713;27;9281;-63
2022/01/25 12:42:30;;;;;;;;;9.40;8.60;;;;;4.04;84.73;101558.22;5111457;27;8891;-64
2022/01/25 12:44:58;;;;;;;;;6.00;3.60;;;;;4.09;84.38;101557.16;5110182;27;9228;-63
2022/01/25 12:47:26;;;;;;;;;0.40;0.00;;;;;4.11;83.82;101551.84;5112686;27;8968;-63
2022/01/25 12:49:54;;;;;;;;;5.20;5.20;;;;;4.13;84.08;101550.03;5114794;27;8971;-63
2022/01/25 12:52:24;;;;;;;;;7.00;6.20;;;;;4.17;84.04;101556.94;5110839;27;8857;-61
2022/01/25 12:54:52;;;;;;;;;1.40;1.00;;;;;4.19;83.96;101550.72;5114946;27;9238;-64
2022/01/25 12:57:19;;;;;;;;;6.60;6.00;;;;;4.18;83.84;101540.25;5112159;27;8899;-64
2022/01/25 12:59:47;;;;;;;;;6.60;4.20;;;;;4.16;84.26;101549.94;5114584;27;8999;-61
2022/01/25 13:02:16;;;;;;;;;3.40;3.40;;;;;4.14;84.22;101552.63;5115792;27;8970;-64
2022/01/25 13:04:44;;;;;;;;;5.20;5.20;;;;;4.15;83.89;101548.22;5115138;27;9525;-63
2022/01/25 13:07:12;;;;;;;;;0.00;0.00;;;;;4.16;83.73;101545.53;5112316;27;8919;-64